Time;durP1;ratioP1;P1;durP2;ratioP2;P2;SDS_P1;SDS_P2;PMS_P1;PMS_P2;Temp;Humidity;BMP_temperature;BMP_pressure;BME280_temperature;BME280_humidity;BME280_pressure;Samples;Min_cycle;Max_cycle;Signal;HPM_P1;HPM_P2
2023/04/11 00:00:34;;;;;;;1.63;1.10;;;;;;;;;;5000148;28;20452;-81
2023/04/11 00:03:03;;;;;;;2.27;1.10;;;;;;;;;;5002135;28;20441;-81
2023/04/11 00:05:32;;;;;;;3.20;1.40;;;;;;;;;;5000972;28;20483;-80
2023/04/11 00:07:58;;;;;;;1.47;1.30;;;;;;;;;;5003069;28;20436;-81
2023/04/11 00:10:24;;;;;;;1.97;1.53;;;;;;;;;;4999603;28;20451;-82
2023/04/11 00:12:55;;;;;;;0.83;0.83;;;;;;;;;;5002216;28;20423;-81
2023/04/11 00:15:22;;;;;;;2.87;1.50;;;;;;;;;;5000810;28;20548;-80
2023/04/11 00:17:48;;;;;;;1.40;1.40;;;;;;;;;;5002059;28;20771;-82
2023/04/11 00:20:15;;;;;;;4.60;1.43;;;;;;;;;;4996953;28;20466;-82
2023/04/11 00:22:42;;;;;;;1.73;1.40;;;;;;;;;;4998148;28;20427;-81
2023/04/11 00:25:08;;;;;;;1.57;1.47;;;;;;;;;;5001978;28;20496;-82
2023/04/11 00:27:34;;;;;;;1.57;1.43;;;;;;;;;;5001027;28;20474;-82
2023/04/11 00:30:00;;;;;;;2.63;2.03;;;;;;;;;;5002321;28;20431;-82
2023/04/11 00:32:26;;;;;;;1.30;0.87;;;;;;;;;;4999534;28;20445;-82
2023/04/11 00:34:54;;;;;;;1.30;1.17;;;;;;;;;;5005002;28;20463;-81
2023/04/11 00:37:22;;;;;;;2.27;1.33;;;;;;;;;;5003405;28;20447;-82
2023/04/11 00:39:52;;;;;;;2.10;2.03;;;;;;;;;;4992847;28;20451;-81
2023/04/11 00:42:19;;;;;;;2.20;1.13;;;;;;;;;;4990510;28;20680;-80
2023/04/11 00:44:45;;;;;;;1.20;1.20;;;;;;;;;;4993428;28;20460;-81
2023/04/11 00:47:12;;;;;;;2.43;1.50;;;;;;;;;;4992598;28;20861;-82
2023/04/11 00:49:38;;;;;;;1.73;1.27;;;;;;;;;;4997178;28;20433;-81
2023/04/11 00:52:05;;;;;;;1.93;1.70;;;;;;;;;;4994521;28;21132;-81
2023/04/11 00:54:31;;;;;;;2.47;1.57;;;;;;;;;;5001941;28;20441;-80
2023/04/11 00:56:58;;;;;;;1.50;1.40;;;;;;;;;;5006424;28;20467;-81
2023/04/11 00:59:26;;;;;;;0.90;0.90;;;;;;;;;;5003833;28;20424;-81
2023/04/11 01:01:52;;;;;;;5.50;1.67;;;;;;;;;;5002957;28;20464;-81
2023/04/11 01:04:18;;;;;;;1.90;1.80;;;;;;;;;;5007043;28;20498;-81
2023/04/11 01:06:56;;;;;;;3.07;1.70;;;;;;;;;;5006804;28;20830;-81
2023/04/11 01:09:24;;;;;;;2.17;1.80;;;;;;;;;;5005984;28;20464;-82
2023/04/11 01:11:50;;;;;;;1.73;1.47;;;;;;;;;;5004163;28;20425;-81
2023/04/11 01:14:18;;;;;;;3.90;2.27;;;;;;;;;;5009502;28;20424;-83
2023/04/11 01:16:46;;;;;;;1.30;1.23;;;;;;;;;;5005512;28;20495;-81
2023/04/11 01:19:16;;;;;;;2.17;1.73;;;;;;;;;;5002896;28;20439;-81
2023/04/11 01:21:43;;;;;;;2.10;2.00;;;;;;;;;;4985218;28;20459;-80
2023/04/11 01:24:09;;;;;;;4.33;1.83;;;;;;;;;;4984481;28;20526;-81
2023/04/11 01:26:35;;;;;;;7.13;2.23;;;;;;;;;;5005413;28;20448;-81
2023/04/11 01:29:01;;;;;;;4.37;2.10;;;;;;;;;;4992842;28;20448;-81
2023/04/11 01:31:28;;;;;;;4.67;1.77;;;;;;;;;;5001041;28;20483;-81
2023/04/11 01:33:54;;;;;;;5.63;2.37;;;;;;;;;;5001366;28;20455;-81
2023/04/11 01:36:20;;;;;;;6.27;2.70;;;;;;;;;;5001943;28;20460;-81
2023/04/11 01:38:46;;;;;;;5.80;1.90;;;;;;;;;;5006063;28;20517;-81
2023/04/11 01:41:13;;;;;;;6.77;3.10;;;;;;;;;;4996947;28;20440;-81
2023/04/11 01:43:39;;;;;;;3.70;1.93;;;;;;;;;;4996007;28;20464;-82
2023/04/11 01:46:06;;;;;;;3.33;2.77;;;;;;;;;;4998843;28;20440;-82
2023/04/11 01:48:35;;;;;;;7.40;2.50;;;;;;;;;;5010344;28;20439;-80
2023/04/11 01:51:01;;;;;;;6.40;3.03;;;;;;;;;;5002463;28;20483;-81
2023/04/11 01:53:27;;;;;;;3.63;3.30;;;;;;;;;;5008377;28;20425;-81
2023/04/11 01:55:53;;;;;;;6.50;2.87;;;;;;;;;;5005586;28;20465;-82
2023/04/11 01:58:19;;;;;;;3.10;2.90;;;;;;;;;;5008872;28;20419;-82
2023/04/11 02:00:45;;;;;;;3.33;3.00;;;;;;;;;;5004610;28;20976;-80
2023/04/11 02:03:11;;;;;;;9.87;3.60;;;;;;;;;;5005864;28;20419;-81
2023/04/11 02:05:38;;;;;;;5.53;3.80;;;;;;;;;;5006191;28;20472;-82
2023/04/11 02:08:04;;;;;;;6.93;3.00;;;;;;;;;;5009891;28;20493;-82
2023/04/11 02:10:31;;;;;;;8.23;3.43;;;;;;;;;;5006191;28;20452;-81
2023/04/11 02:12:57;;;;;;;6.80;2.70;;;;;;;;;;5008111;28;20452;-81
2023/04/11 02:15:23;;;;;;;3.77;3.00;;;;;;;;;;5008653;28;20498;-82
2023/04/11 02:17:52;;;;;;;2.43;1.63;;;;;;;;;;5006465;28;20448;-83
2023/04/11 02:20:20;;;;;;;4.80;3.10;;;;;;;;;;4998453;28;20427;-81
2023/04/11 02:22:46;;;;;;;9.57;2.40;;;;;;;;;;5004047;28;20428;-81
2023/04/11 02:25:12;;;;;;;4.03;2.70;;;;;;;;;;5008450;28;20499;-82
2023/04/11 02:27:38;;;;;;;2.93;1.90;;;;;;;;;;5006213;28;20444;-81
2023/04/11 02:30:05;;;;;;;2.70;2.53;;;;;;;;;;5008913;28;20416;-81
2023/04/11 02:32:37;;;;;;;14.17;3.20;;;;;;;;;;5008802;28;20523;-81
2023/04/11 02:35:07;;;;;;;8.00;3.07;;;;;;;;;;5010551;28;20459;-83
2023/04/11 02:37:33;;;;;;;4.87;3.00;;;;;;;;;;5011034;28;20435;-83
2023/04/11 02:40:03;;;;;;;8.27;3.80;;;;;;;;;;5011259;28;20463;-83
2023/04/11 02:42:29;;;;;;;15.30;2.97;;;;;;;;;;5000013;28;20445;-81
2023/04/11 02:44:55;;;;;;;12.87;3.63;;;;;;;;;;4990559;28;20519;-81
2023/04/11 02:47:21;;;;;;;19.67;4.10;;;;;;;;;;4997364;28;20475;-81
2023/04/11 02:49:47;;;;;;;8.77;3.00;;;;;;;;;;5000628;28;20452;-81
2023/04/11 02:52:13;;;;;;;5.03;2.20;;;;;;;;;;4990439;28;21037;-81
2023/04/11 02:54:39;;;;;;;8.17;3.60;;;;;;;;;;5006099;28;20473;-83
2023/04/11 02:57:05;;;;;;;3.80;3.07;;;;;;;;;;5003508;28;20429;-83
2023/04/11 02:59:31;;;;;;;7.77;2.93;;;;;;;;;;5010572;28;20404;-82
2023/04/11 03:01:58;;;;;;;15.40;3.07;;;;;;;;;;4990781;28;20587;-80
2023/04/11 03:04:24;;;;;;;17.63;3.97;;;;;;;;;;4986244;28;20518;-81
2023/04/11 03:06:50;;;;;;;10.57;5.37;;;;;;;;;;5001305;28;20428;-81
2023/04/11 03:09:16;;;;;;;3.10;2.53;;;;;;;;;;4999535;28;20432;-80
2023/04/11 03:11:42;;;;;;;6.80;3.77;;;;;;;;;;4982011;28;20440;-80
2023/04/11 03:14:08;;;;;;;9.13;3.37;;;;;;;;;;4985095;28;20440;-81
2023/04/11 03:16:34;;;;;;;14.13;3.20;;;;;;;;;;5002027;28;20444;-80
2023/04/11 03:19:00;;;;;;;8.67;3.00;;;;;;;;;;4992846;28;20433;-81
2023/04/11 03:21:26;;;;;;;4.50;2.57;;;;;;;;;;5001278;28;20468;-81
2023/04/11 03:23:53;;;;;;;8.13;3.10;;;;;;;;;;4984820;28;20975;-80
2023/04/11 03:26:19;;;;;;;8.07;2.83;;;;;;;;;;4995398;28;20435;-79
2023/04/11 03:28:45;;;;;;;5.47;3.53;;;;;;;;;;4986859;28;20463;-81
2023/04/11 03:31:12;;;;;;;12.93;3.73;;;;;;;;;;4981772;28;20417;-80
2023/04/11 03:33:38;;;;;;;4.73;3.20;;;;;;;;;;5013509;28;20444;-82
2023/04/11 03:36:05;;;;;;;6.13;3.40;;;;;;;;;;5006720;28;20488;-81
2023/04/11 03:38:31;;;;;;;10.03;4.00;;;;;;;;;;5004955;28;20543;-80
2023/04/11 03:40:57;;;;;;;12.77;3.73;;;;;;;;;;4987634;28;20437;-82
2023/04/11 03:43:23;;;;;;;11.47;3.80;;;;;;;;;;4987794;28;20448;-81
2023/04/11 03:45:50;;;;;;;15.90;3.80;;;;;;;;;;5003793;28;20429;-81
2023/04/11 03:48:16;;;;;;;6.93;3.57;;;;;;;;;;4990459;28;20444;-80
2023/04/11 03:50:42;;;;;;;11.70;4.73;;;;;;;;;;4994724;28;20433;-80
2023/04/11 03:53:08;;;;;;;10.17;4.03;;;;;;;;;;4993621;28;20498;-81
2023/04/11 03:55:34;;;;;;;9.10;4.30;;;;;;;;;;4990885;28;20941;-79
2023/04/11 03:58:00;;;;;;;7.20;3.93;;;;;;;;;;4991180;28;20441;-81
2023/04/11 04:00:27;;;;;;;9.53;4.60;;;;;;;;;;5009062;28;20474;-80
2023/04/11 04:02:53;;;;;;;6.80;3.93;;;;;;;;;;4999214;28;20445;-82
2023/04/11 04:05:19;;;;;;;15.37;2.83;;;;;;;;;;5000723;28;20460;-81
2023/04/11 04:07:45;;;;;;;9.47;2.93;;;;;;;;;;5003122;28;20437;-80
2023/04/11 04:10:11;;;;;;;11.63;4.20;;;;;;;;;;5002771;28;20755;-81
2023/04/11 04:12:37;;;;;;;9.33;4.00;;;;;;;;;;5002370;28;20448;-80
2023/04/11 04:15:03;;;;;;;11.50;4.07;;;;;;;;;;4990839;28;20441;-79
2023/04/11 04:17:29;;;;;;;8.20;4.20;;;;;;;;;;5009707;28;20432;-82
2023/04/11 04:19:55;;;;;;;9.83;3.97;;;;;;;;;;4987772;28;20464;-80
2023/04/11 04:22:22;;;;;;;10.17;4.60;;;;;;;;;;4984633;28;20442;-80
2023/04/11 04:24:49;;;;;;;11.03;5.33;;;;;;;;;;4983341;28;20467;-80
2023/04/11 04:27:17;;;;;;;14.83;6.60;;;;;;;;;;4980810;28;20464;-81
2023/04/11 04:29:47;;;;;;;8.83;3.73;;;;;;;;;;4999007;28;20463;-80
2023/04/11 04:32:19;;;;;;;12.07;5.90;;;;;;;;;;4987159;28;20465;-81
2023/04/11 04:34:48;;;;;;;10.80;4.70;;;;;;;;;;4996758;28;20875;-81
2023/04/11 04:37:21;;;;;;;14.87;7.93;;;;;;;;;;5003344;28;20439;-81
2023/04/11 04:39:53;;;;;;;9.83;3.80;;;;;;;;;;4985728;28;20840;-78
2023/04/11 04:42:25;;;;;;;10.00;4.60;;;;;;;;;;4985257;28;20544;-80
2023/04/11 04:44:52;;;;;;;15.33;5.43;;;;;;;;;;4978560;28;20476;-80
2023/04/11 04:47:18;;;;;;;7.33;4.60;;;;;;;;;;5004648;28;20456;-82
2023/04/11 04:49:45;;;;;;;7.87;4.57;;;;;;;;;;4986791;28;20845;-81
2023/04/11 04:52:11;;;;;;;8.97;4.37;;;;;;;;;;4992726;28;20554;-79
2023/04/11 04:54:38;;;;;;;13.23;5.57;;;;;;;;;;4987240;28;20446;-79
2023/04/11 04:57:04;;;;;;;9.90;4.40;;;;;;;;;;5008827;28;20971;-80
2023/04/11 04:59:31;;;;;;;8.13;5.13;;;;;;;;;;4980919;28;20443;-84
2023/04/11 05:01:57;;;;;;;14.40;4.30;;;;;;;;;;4977924;28;20434;-80
2023/04/11 05:04:23;;;;;;;5.37;3.47;;;;;;;;;;4984205;28;20601;-81
2023/04/11 05:06:49;;;;;;;7.73;4.03;;;;;;;;;;5001612;28;20455;-82
2023/04/11 05:09:15;;;;;;;10.80;4.23;;;;;;;;;;4981711;28;20440;-81
2023/04/11 05:11:41;;;;;;;5.83;3.53;;;;;;;;;;4984582;28;20425;-81
2023/04/11 05:14:07;;;;;;;10.23;4.10;;;;;;;;;;4979236;28;20519;-80
2023/04/11 05:16:33;;;;;;;9.97;4.27;;;;;;;;;;4997294;28;20455;-81
2023/04/11 05:18:59;;;;;;;10.20;3.93;;;;;;;;;;4981565;28;20525;-81
2023/04/11 05:21:26;;;;;;;3.60;3.37;;;;;;;;;;4986584;28;20479;-81
2023/04/11 05:23:52;;;;;;;10.53;3.50;;;;;;;;;;4980667;28;20498;-81
2023/04/11 05:26:18;;;;;;;7.70;4.13;;;;;;;;;;4988432;28;21010;-80
2023/04/11 05:28:44;;;;;;;12.93;3.73;;;;;;;;;;4968944;28;20433;-80
2023/04/11 05:31:11;;;;;;;6.20;3.53;;;;;;;;;;4976377;28;20445;-81
2023/04/11 05:33:38;;;;;;;12.03;3.37;;;;;;;;;;4982579;28;20480;-78
2023/04/11 05:36:04;;;;;;;7.40;3.40;;;;;;;;;;4993649;28;20423;-84
2023/04/11 05:38:34;;;;;;;5.90;3.13;;;;;;;;;;4996023;28;20451;-80
2023/04/11 05:41:00;;;;;;;13.53;5.43;;;;;;;;;;4996531;28;20499;-83
2023/04/11 05:43:26;;;;;;;16.43;3.40;;;;;;;;;;5007556;28;20429;-81
2023/04/11 05:45:52;;;;;;;11.70;4.80;;;;;;;;;;4999067;28;20584;-80
2023/04/11 05:48:18;;;;;;;7.27;3.67;;;;;;;;;;4961546;28;20433;-83
2023/04/11 05:50:45;;;;;;;14.50;4.30;;;;;;;;;;4994715;28;20481;-80
2023/04/11 05:53:11;;;;;;;7.40;3.63;;;;;;;;;;5001084;28;20447;-80
2023/04/11 05:55:37;;;;;;;14.67;4.03;;;;;;;;;;5001941;28;20956;-83
2023/04/11 05:58:03;;;;;;;4.07;2.77;;;;;;;;;;4972499;28;20453;-83
2023/04/11 06:00:32;;;;;;;7.30;4.57;;;;;;;;;;5001010;28;20453;-82
2023/04/11 06:02:59;;;;;;;3.60;3.30;;;;;;;;;;4997075;28;20436;-82
2023/04/11 06:05:25;;;;;;;6.80;4.03;;;;;;;;;;4996950;28;20484;-82
2023/04/11 06:07:51;;;;;;;6.17;4.23;;;;;;;;;;5010509;28;20440;-85
2023/04/11 06:10:17;;;;;;;8.93;4.20;;;;;;;;;;4983059;28;20451;-82
2023/04/11 06:12:43;;;;;;;10.77;5.23;;;;;;;;;;4997813;28;20432;-83
2023/04/11 06:15:10;;;;;;;7.63;3.70;;;;;;;;;;5001294;28;20487;-84
2023/04/11 06:17:37;;;;;;;5.70;3.93;;;;;;;;;;5003062;28;20425;-83
2023/04/11 06:20:04;;;;;;;5.60;4.67;;;;;;;;;;5002651;28;20448;-82
2023/04/11 06:22:30;;;;;;;9.13;3.50;;;;;;;;;;4989773;28;20460;-84
2023/04/11 06:24:57;;;;;;;19.90;5.20;;;;;;;;;;5001905;28;20471;-84
2023/04/11 06:27:23;;;;;;;8.10;4.80;;;;;;;;;;5009922;28;20435;-84
2023/04/11 06:29:49;;;;;;;7.47;3.83;;;;;;;;;;4997949;28;20443;-84
2023/04/11 06:32:15;;;;;;;7.53;4.00;;;;;;;;;;5003411;28;20440;-84
2023/04/11 06:34:41;;;;;;;14.83;3.83;;;;;;;;;;4993628;28;20456;-85
2023/04/11 06:37:07;;;;;;;8.17;3.33;;;;;;;;;;4989847;28;20449;-80
2023/04/11 06:39:34;;;;;;;9.60;4.40;;;;;;;;;;5019662;28;20431;-82
2023/04/11 06:42:00;;;;;;;6.40;4.00;;;;;;;;;;5005254;28;20437;-85
2023/04/11 06:44:27;;;;;;;3.53;2.73;;;;;;;;;;4998764;28;20535;-82
2023/04/11 06:46:58;;;;;;;10.27;3.40;;;;;;;;;;5014835;28;20452;-83
2023/04/11 06:49:23;;;;;;;4.47;3.60;;;;;;;;;;4994380;28;20432;-83
2023/04/11 06:51:50;;;;;;;6.23;3.50;;;;;;;;;;5013326;28;20424;-84
2023/04/11 06:54:20;;;;;;;7.83;3.20;;;;;;;;;;5000704;28;20474;-84
2023/04/11 06:56:49;;;;;;;6.53;3.23;;;;;;;;;;5000062;28;20467;-83
2023/04/11 06:59:18;;;;;;;6.00;3.50;;;;;;;;;;5002204;28;20459;-82
2023/04/11 07:01:44;;;;;;;3.30;2.90;;;;;;;;;;4974768;28;20432;-82
2023/04/11 07:04:10;;;;;;;4.10;3.30;;;;;;;;;;4995814;28;20471;-83
2023/04/11 07:06:36;;;;;;;2.20;2.07;;;;;;;;;;4971464;28;20468;-84
2023/04/11 07:09:05;;;;;;;6.53;2.70;;;;;;;;;;5003634;28;20445;-82
2023/04/11 07:11:32;;;;;;;9.17;2.50;;;;;;;;;;4992635;28;20436;-81
2023/04/11 07:13:59;;;;;;;10.30;4.43;;;;;;;;;;4986662;28;20449;-83
2023/04/11 07:16:25;;;;;;;4.67;2.40;;;;;;;;;;4979737;28;20460;-85
2023/04/11 07:18:52;;;;;;;8.30;2.70;;;;;;;;;;4993943;28;20440;-82
2023/04/11 07:21:18;;;;;;;5.67;3.23;;;;;;;;;;5004810;28;20736;-83
2023/04/11 07:23:44;;;;;;;8.33;3.30;;;;;;;;;;5005371;28;20460;-82
2023/04/11 07:26:10;;;;;;;4.20;2.97;;;;;;;;;;5002682;28;20436;-82
2023/04/11 07:28:40;;;;;;;5.20;3.17;;;;;;;;;;4996445;28;20448;-83
2023/04/11 07:31:07;;;;;;;1.87;1.80;;;;;;;;;;5000522;28;20452;-83
2023/04/11 07:33:53;;;;;;;5.23;3.33;;;;;;;;;;4995052;28;20433;-84
2023/04/11 07:36:19;;;;;;;11.73;3.67;;;;;;;;;;4994335;28;20460;-86
2023/04/11 07:39:03;;;;;;;4.87;3.83;;;;;;;;;;4996333;28;20490;-83
2023/04/11 07:41:37;;;;;;;2.90;2.70;;;;;;;;;;5005132;28;20448;-84
2023/04/11 07:44:05;;;;;;;11.23;4.30;;;;;;;;;;5013744;28;20487;-85
2023/04/11 07:46:32;;;;;;;8.13;4.50;;;;;;;;;;5006379;28;20464;-82
2023/04/11 07:49:24;;;;;;;8.13;3.07;;;;;;;;;;5013429;28;20429;-79
2023/04/11 07:51:50;;;;;;;3.90;2.60;;;;;;;;;;4992587;28;20442;-84
2023/04/11 07:54:16;;;;;;;12.53;3.60;;;;;;;;;;5010328;28;20441;-83
2023/04/11 07:56:42;;;;;;;5.57;4.33;;;;;;;;;;5004718;28;20792;-85
2023/04/11 07:59:08;;;;;;;6.53;2.70;;;;;;;;;;5003192;28;20436;-83
2023/04/11 08:01:34;;;;;;;7.40;4.00;;;;;;;;;;4989891;28;20564;-84
2023/04/11 08:04:00;;;;;;;7.50;4.00;;;;;;;;;;5001384;28;20488;-83
2023/04/11 08:06:27;;;;;;;6.30;3.23;;;;;;;;;;4995889;28;20495;-81
2023/04/11 08:08:53;;;;;;;5.20;3.00;;;;;;;;;;4982827;28;20421;-83
2023/04/11 08:11:19;;;;;;;7.43;3.57;;;;;;;;;;4992634;28;20961;-83
2023/04/11 08:13:45;;;;;;;10.03;2.73;;;;;;;;;;4979669;28;20444;-82
2023/04/11 08:16:13;;;;;;;10.93;3.40;;;;;;;;;;4989634;28;20455;-84
2023/04/11 08:18:40;;;;;;;4.90;2.30;;;;;;;;;;5001260;28;20518;-81
2023/04/11 08:21:07;;;;;;;7.73;2.70;;;;;;;;;;4981718;28;20505;-78
2023/04/11 08:23:33;;;;;;;4.77;2.60;;;;;;;;;;4970512;28;20409;-79
2023/04/11 08:25:59;;;;;;;3.87;2.80;;;;;;;;;;4958650;28;20802;-77
2023/04/11 08:28:25;;;;;;;3.70;2.37;;;;;;;;;;4983401;28;20561;-78
2023/04/11 08:30:54;;;;;;;7.90;3.27;;;;;;;;;;4968466;28;20463;-78
2023/04/11 08:33:23;;;;;;;4.40;2.60;;;;;;;;;;4979568;28;20461;-76
2023/04/11 08:35:49;;;;;;;2.80;2.40;;;;;;;;;;4976325;28;20456;-80
2023/04/11 08:38:15;;;;;;;6.67;2.30;;;;;;;;;;4962800;28;20934;-80
2023/04/11 08:40:41;;;;;;;3.00;2.63;;;;;;;;;;4981979;28;20490;-80
2023/04/11 08:43:10;;;;;;;7.00;2.17;;;;;;;;;;4981805;28;20425;-80
2023/04/11 08:45:37;;;;;;;5.53;1.90;;;;;;;;;;4970019;28;20819;-80
2023/04/11 08:48:03;;;;;;;2.93;2.63;;;;;;;;;;4981953;28;20432;-79
2023/04/11 08:50:29;;;;;;;3.00;2.37;;;;;;;;;;4972083;28;20448;-80
2023/04/11 08:52:56;;;;;;;5.87;2.90;;;;;;;;;;4973556;28;20846;-79
2023/04/11 08:55:22;;;;;;;2.20;2.10;;;;;;;;;;4974362;28;20428;-80
2023/04/11 08:57:48;;;;;;;2.20;1.83;;;;;;;;;;4983823;28;20537;-79
2023/04/11 09:00:21;;;;;;;4.30;2.33;;;;;;;;;;4966630;28;20519;-79
2023/04/11 09:02:57;;;;;;;3.40;2.40;;;;;;;;;;4978903;28;20432;-77
2023/04/11 09:05:26;;;;;;;3.60;2.10;;;;;;;;;;4978348;28;20533;-80
2023/04/11 09:07:53;;;;;;;1.50;1.40;;;;;;;;;;4986802;28;20427;-79
2023/04/11 09:10:20;;;;;;;2.60;1.20;;;;;;;;;;4981498;28;20436;-78
2023/04/11 09:12:46;;;;;;;5.63;2.67;;;;;;;;;;4959235;28;20995;-78
2023/04/11 09:15:19;;;;;;;3.40;2.03;;;;;;;;;;4977453;28;20461;-78
2023/04/11 09:17:45;;;;;;;2.30;2.20;;;;;;;;;;4997271;28;20421;-79
2023/04/11 09:20:24;;;;;;;2.50;1.83;;;;;;;;;;4978321;28;20427;-79
2023/04/11 09:22:51;;;;;;;5.93;2.30;;;;;;;;;;4970189;28;20416;-77
2023/04/11 09:25:18;;;;;;;2.40;2.30;;;;;;;;;;4976869;28;20503;-77
2023/04/11 09:27:45;;;;;;;3.90;2.27;;;;;;;;;;4990957;28;20420;-80
2023/04/11 09:30:21;;;;;;;2.40;2.30;;;;;;;;;;4980058;28;20835;-79
2023/04/11 09:32:48;;;;;;;3.53;1.93;;;;;;;;;;4962687;28;20452;-79
2023/04/11 09:35:15;;;;;;;1.70;1.60;;;;;;;;;;4982144;28;20455;-77
2023/04/11 09:37:52;;;;;;;2.63;2.50;;;;;;;;;;4983946;28;20467;-77
2023/04/11 09:40:19;;;;;;;4.00;2.67;;;;;;;;;;4975855;28;20707;-79
2023/04/11 09:42:45;;;;;;;1.90;1.70;;;;;;;;;;4977829;28;20505;-77
2023/04/11 09:45:21;;;;;;;4.03;1.57;;;;;;;;;;4975586;28;20965;-77
2023/04/11 09:47:48;;;;;;;1.97;1.87;;;;;;;;;;4991784;28;20512;-77
2023/04/11 09:50:15;;;;;;;4.40;1.73;;;;;;;;;;4972290;28;20448;-78
2023/04/11 09:52:44;;;;;;;2.53;2.07;;;;;;;;;;4954514;28;20974;-77
2023/04/11 09:55:12;;;;;;;2.37;2.17;;;;;;;;;;4969837;28;20511;-79
2023/04/11 09:57:39;;;;;;;2.50;2.30;;;;;;;;;;4982427;28;20444;-78
2023/04/11 10:00:15;;;;;;;2.67;2.47;;;;;;;;;;4988951;28;20499;-79
2023/04/11 10:02:45;;;;;;;10.53;3.00;;;;;;;;;;4982117;28;20452;-79
2023/04/11 10:05:13;;;;;;;4.07;2.60;;;;;;;;;;4979322;28;20483;-84
2023/04/11 10:07:51;;;;;;;2.90;2.80;;;;;;;;;;5015214;28;20456;-83
2023/04/11 10:10:19;;;;;;;3.23;3.00;;;;;;;;;;4985278;28;20836;-84
2023/04/11 10:12:45;;;;;;;2.97;2.50;;;;;;;;;;4987661;28;20439;-83
2023/04/11 10:15:11;;;;;;;6.27;2.90;;;;;;;;;;4984249;28;20464;-85
2023/04/11 10:17:39;;;;;;;3.17;2.97;;;;;;;;;;4995621;28;20428;-84
2023/04/11 10:20:24;;;;;;;4.17;2.87;;;;;;;;;;4989342;28;20447;-84
2023/04/11 10:22:50;;;;;;;2.40;2.20;;;;;;;;;;4981046;28;20435;-82
2023/04/11 10:25:20;;;;;;;5.13;4.70;;;;;;;;;;4982907;28;20869;-83
2023/04/11 10:27:53;;;;;;;2.90;2.70;;;;;;;;;;5005149;28;20521;-87
2023/04/11 10:30:39;;;;;;;3.20;2.37;;;;;;;;;;4991599;28;20444;-84
2023/04/11 10:33:13;;;;;;;4.40;3.23;;;;;;;;;;4971858;28;20445;-85
2023/04/11 10:35:57;;;;;;;2.73;2.47;;;;;;;;;;4994486;28;20448;-86
2023/04/11 10:38:42;;;;;;;4.50;4.20;;;;;;;;;;5103849;23;20464;-93
2023/04/11 10:41:32;;;;;;;4.00;2.77;;;;;;;;;;4997033;28;20439;-91
2023/04/11 10:44:16;;;;;;;3.27;3.20;;;;;;;;;;4992770;28;20480;-91
2023/04/11 10:46:47;;;;;;;3.20;3.17;;;;;;;;;;5001059;28;20444;-91
2023/04/11 10:49:30;;;;;;;4.53;3.00;;;;;;;;;;4982727;28;20432;-94
2023/04/11 10:52:15;;;;;;;2.97;2.77;;;;;;;;;;4977905;28;20470;-91
2023/04/11 10:54:41;;;;;;;5.23;4.93;;;;;;;;;;4965707;28;20441;-91
2023/04/11 10:57:10;;;;;;;3.33;3.20;;;;;;;;;;4975005;28;20441;-87
2023/04/11 11:02:36;;;;;;;5.87;2.67;;;;;;;;;;5012186;28;20483;-91
2023/04/11 11:05:13;;;;;;;4.47;3.60;;;;;;;;;;4989552;28;20492;-94
2023/04/11 11:07:45;;;;;;;3.80;3.50;;;;;;;;;;5001400;28;20723;-92
2023/04/11 11:10:11;;;;;;;2.80;2.57;;;;;;;;;;4986386;28;20536;-93
2023/04/11 11:12:37;;;;;;;3.40;3.17;;;;;;;;;;4967576;28;20440;-92
2023/04/11 11:15:12;;;;;;;5.57;2.63;;;;;;;;;;4970339;28;20467;-95
2023/04/11 11:17:39;;;;;;;2.50;2.40;;;;;;;;;;4979805;28;20504;-91
2023/04/11 11:20:08;;;;;;;2.83;2.73;;;;;;;;;;4968740;28;21190;-88
2023/04/11 11:22:34;;;;;;;2.30;2.10;;;;;;;;;;4978625;28;20413;-91
2023/04/11 11:25:10;;;;;;;4.10;2.10;;;;;;;;;;4965553;28;20782;-92
2023/04/11 11:27:36;;;;;;;3.73;3.50;;;;;;;;;;4976169;28;20442;-92
2023/04/11 11:30:11;;;;;;;3.60;2.73;;;;;;;;;;4983235;28;20437;-95
2023/04/11 11:32:37;;;;;;;3.40;3.07;;;;;;;;;;4970342;28;20448;-92
2023/04/11 11:35:22;;;;;;;3.37;3.17;;;;;;;;;;4970363;28;20425;-91
2023/04/11 11:37:53;;;;;;;2.67;2.60;;;;;;;;;;4953137;28;20888;-91
2023/04/11 11:40:22;;;;;;;2.53;2.43;;;;;;;;;;4938603;28;20458;-92
2023/04/11 11:42:49;;;;;;;6.53;1.93;;;;;;;;;;4955846;28;20433;-92
2023/04/11 11:45:15;;;;;;;2.47;2.23;;;;;;;;;;4954172;28;20469;-94
2023/04/11 11:47:42;;;;;;;2.63;2.40;;;;;;;;;;4963002;28;20453;-94
2023/04/11 11:50:08;;;;;;;7.77;3.97;;;;;;;;;;4957129;28;20583;-93
2023/04/11 11:52:39;;;;;;;2.70;2.50;;;;;;;;;;4962331;28;20413;-92
2023/04/11 11:55:17;;;;;;;3.57;3.37;;;;;;;;;;4951396;28;20779;-89
2023/04/11 11:57:47;;;;;;;2.27;2.10;;;;;;;;;;4964555;28;20422;-90
2023/04/11 12:00:13;;;;;;;2.50;2.40;;;;;;;;;;4955363;28;20434;-90
2023/04/11 12:02:41;;;;;;;1.53;1.43;;;;;;;;;;4954701;28;20442;-92
2023/04/11 12:05:10;;;;;;;2.60;2.50;;;;;;;;;;4949814;28;20539;-90
2023/04/11 12:07:36;;;;;;;3.60;2.60;;;;;;;;;;4950488;28;20468;-93
2023/04/11 12:10:06;;;;;;;2.40;2.20;;;;;;;;;;4946609;28;20425;-91
2023/04/11 12:12:37;;;;;;;2.37;2.37;;;;;;;;;;4969377;28;20486;-90
2023/04/11 12:15:03;;;;;;;2.20;2.10;;;;;;;;;;4959081;28;20433;-92
2023/04/11 12:17:35;;;;;;;1.77;1.67;;;;;;;;;;4963230;28;20445;-91
2023/04/11 12:20:05;;;;;;;2.30;1.77;;;;;;;;;;4948935;28;20417;-93
2023/04/11 12:22:31;;;;;;;2.37;1.43;;;;;;;;;;4976921;28;20417;-92
2023/04/11 12:25:04;;;;;;;1.70;1.60;;;;;;;;;;4956718;28;20469;-90
2023/04/11 12:27:32;;;;;;;2.23;2.13;;;;;;;;;;4961893;28;20421;-90
2023/04/11 12:29:58;;;;;;;2.27;2.10;;;;;;;;;;4960060;28;20469;-92
2023/04/11 12:32:26;;;;;;;4.23;2.07;;;;;;;;;;4950922;28;20457;-90
2023/04/11 12:34:52;;;;;;;2.03;1.93;;;;;;;;;;4951829;28;20955;-89
2023/04/11 12:37:19;;;;;;;3.17;2.87;;;;;;;;;;4946872;29;20458;-89
2023/04/11 12:39:45;;;;;;;4.87;2.63;;;;;;;;;;4951358;29;20726;-92
2023/04/11 12:42:11;;;;;;;2.13;1.83;;;;;;;;;;4951789;28;20527;-91
2023/04/11 12:44:37;;;;;;;2.53;2.43;;;;;;;;;;4936526;28;20486;-91
2023/04/11 12:47:11;;;;;;;3.33;3.13;;;;;;;;;;4949368;28;20455;-92
2023/04/11 12:49:38;;;;;;;2.53;2.37;;;;;;;;;;4952830;29;20422;-92
2023/04/11 12:52:05;;;;;;;2.63;2.50;;;;;;;;;;4951356;28;20498;-91
2023/04/11 12:54:32;;;;;;;3.67;2.20;;;;;;;;;;4964500;28;20795;-89
2023/04/11 12:56:58;;;;;;;3.67;3.00;;;;;;;;;;4952814;28;20931;-92
2023/04/11 12:59:25;;;;;;;2.10;2.00;;;;;;;;;;4966022;28;20433;-89
2023/04/11 13:01:51;;;;;;;4.50;2.80;;;;;;;;;;4939515;28;20461;-91
2023/04/11 13:04:17;;;;;;;2.33;2.17;;;;;;;;;;4954112;28;20579;-92
2023/04/11 13:06:43;;;;;;;2.13;1.93;;;;;;;;;;4946969;28;20457;-89
2023/04/11 13:09:37;;;;;;;2.10;2.10;;;;;;;;;;4948358;29;20537;-96
2023/04/11 13:12:26;;;;;;;2.07;1.97;;;;;;;;;;4952275;28;20430;-95
2023/04/11 13:17:40;;;;;;;1.30;1.30;;;;;;;;;;5014815;23;20821;-84
2023/04/11 13:20:09;;;;;;;2.87;2.30;;;;;;;;;;5023021;28;20535;-84
2023/04/11 13:22:39;;;;;;;1.90;1.70;;;;;;;;;;4988761;28;20435;-87
2023/04/11 13:25:06;;;;;;;3.40;1.73;;;;;;;;;;5013066;28;20495;-85
2023/04/11 13:27:32;;;;;;;2.50;1.47;;;;;;;;;;5009141;28;20443;-84
2023/04/11 13:29:58;;;;;;;1.83;1.83;;;;;;;;;;5013197;28;20431;-87
2023/04/11 13:32:24;;;;;;;1.50;1.37;;;;;;;;;;5006179;28;20441;-84
2023/04/11 13:34:50;;;;;;;2.27;1.30;;;;;;;;;;4998034;28;20436;-86
2023/04/11 13:37:16;;;;;;;1.37;1.07;;;;;;;;;;5021628;28;20442;-84
2023/04/11 13:39:42;;;;;;;6.33;1.10;;;;;;;;;;5017203;28;20436;-82
2023/04/11 13:42:24;;;;;;;1.70;1.60;;;;;;;;;;5023282;28;20420;-84
2023/04/11 13:44:53;;;;;;;2.53;1.60;;;;;;;;;;5028028;28;20677;-88
2023/04/11 13:47:19;;;;;;;1.50;1.33;;;;;;;;;;5008663;28;20471;-82
2023/04/11 13:49:45;;;;;;;2.13;1.57;;;;;;;;;;4993001;28;20444;-85
2023/04/11 13:52:11;;;;;;;3.07;1.60;;;;;;;;;;5002055;28;20453;-84
2023/04/11 13:54:37;;;;;;;3.03;1.60;;;;;;;;;;4984657;28;20440;-86
2023/04/11 13:57:06;;;;;;;2.93;1.93;;;;;;;;;;4996921;28;20950;-83
2023/04/11 13:59:32;;;;;;;1.67;1.50;;;;;;;;;;4986376;28;20656;-85
2023/04/11 14:01:58;;;;;;;4.10;1.60;;;;;;;;;;4990618;28;20447;-84
2023/04/11 14:04:24;;;;;;;4.27;1.50;;;;;;;;;;4977213;28;20559;-87
2023/04/11 14:06:52;;;;;;;1.83;1.70;;;;;;;;;;4998736;28;20439;-83
2023/04/11 14:09:18;;;;;;;2.97;1.53;;;;;;;;;;5009974;28;20409;-85
2023/04/11 14:11:47;;;;;;;1.83;1.70;;;;;;;;;;5003400;28;20416;-86
2023/04/11 14:14:13;;;;;;;2.17;1.97;;;;;;;;;;4998583;28;20400;-83
2023/04/11 14:16:39;;;;;;;1.80;1.70;;;;;;;;;;4981877;28;20468;-86
2023/04/11 14:19:05;;;;;;;2.17;2.07;;;;;;;;;;5013585;28;20464;-84
2023/04/11 14:21:31;;;;;;;1.87;1.70;;;;;;;;;;4986723;28;20495;-83
2023/04/11 14:23:58;;;;;;;2.00;1.90;;;;;;;;;;5001775;28;20852;-83
2023/04/11 14:26:27;;;;;;;2.00;1.90;;;;;;;;;;4984228;28;20437;-84
2023/04/11 14:28:53;;;;;;;1.40;1.40;;;;;;;;;;5008472;28;20396;-84
2023/04/11 14:31:19;;;;;;;1.27;1.23;;;;;;;;;;4990067;28;20453;-85
2023/04/11 14:33:45;;;;;;;1.87;1.77;;;;;;;;;;4998224;28;20849;-84
2023/04/11 14:36:11;;;;;;;1.20;1.20;;;;;;;;;;5004007;28;20424;-82
2023/04/11 14:38:37;;;;;;;3.73;2.30;;;;;;;;;;4996698;28;20808;-83
2023/04/11 14:41:05;;;;;;;1.77;1.67;;;;;;;;;;4969671;28;20429;-83
2023/04/11 14:43:31;;;;;;;1.70;1.57;;;;;;;;;;4999844;28;20443;-82
2023/04/11 14:45:57;;;;;;;1.77;1.67;;;;;;;;;;4975147;28;20477;-83
2023/04/11 14:48:25;;;;;;;1.70;1.60;;;;;;;;;;4985504;28;20862;-83
2023/04/11 14:50:51;;;;;;;4.43;1.80;;;;;;;;;;4977186;28;20711;-83